Time;durP1;ratioP1;P1;durP2;ratioP2;P2;SDS_P1;SDS_P2;PMS_P1;PMS_P2;Temp;Humidity;BMP_temperature;BMP_pressure;BME280_temperature;BME280_humidity;BME280_pressure;Samples;Min_cycle;Max_cycle;Signal;HPM_P1;HPM_P2
2021/12/28 00:00:45;;;;;;;2.07;1.70;;;;;;;;;;5075442;28;20288;-92
2021/12/28 00:03:12;;;;;;;1.80;1.70;;;;;;;;;;5093038;28;20239;-92
2021/12/28 00:05:39;;;;;;;2.97;2.10;;;;;;;;;;5077103;28;20209;-93
2021/12/28 00:08:07;;;;;;;2.53;2.07;;;;;;;;;;5068912;28;20259;-93
2021/12/28 00:10:34;;;;;;;1.77;1.67;;;;;;;;;;5078627;28;20197;-93
2021/12/28 00:13:03;;;;;;;2.23;2.03;;;;;;;;;;5096051;28;20236;-92
2021/12/28 00:15:47;;;;;;;2.97;2.57;;;;;;;;;;5095375;28;20227;-90
2021/12/28 00:18:14;;;;;;;4.73;2.27;;;;;;;;;;5066467;28;20650;-92
2021/12/28 00:20:43;;;;;;;3.37;2.47;;;;;;;;;;5084154;28;20201;-93
2021/12/28 00:23:13;;;;;;;2.37;2.13;;;;;;;;;;5075772;28;20632;-93
2021/12/28 00:25:40;;;;;;;4.00;2.00;;;;;;;;;;5062915;28;20292;-92
2021/12/28 00:28:09;;;;;;;2.90;2.10;;;;;;;;;;5084511;28;20589;-93
2021/12/28 00:30:37;;;;;;;2.40;1.90;;;;;;;;;;5055903;28;20643;-93
2021/12/28 00:33:04;;;;;;;3.10;1.80;;;;;;;;;;5071053;28;20282;-93
2021/12/28 00:35:32;;;;;;;2.17;1.97;;;;;;;;;;5084090;28;20225;-93
2021/12/28 00:38:00;;;;;;;3.70;2.70;;;;;;;;;;5075067;28;20251;-92
2021/12/28 00:40:28;;;;;;;1.63;1.53;;;;;;;;;;5075265;28;20225;-92
2021/12/28 00:42:55;;;;;;;2.20;1.80;;;;;;;;;;5069145;28;20224;-93
2021/12/28 00:45:25;;;;;;;3.57;1.70;;;;;;;;;;5085303;28;20205;-93
2021/12/28 00:47:52;;;;;;;13.13;1.80;;;;;;;;;;5095573;28;20261;-93
2021/12/28 00:50:20;;;;;;;9.63;2.00;;;;;;;;;;5095791;28;20209;-93
2021/12/28 00:52:48;;;;;;;8.87;1.70;;;;;;;;;;5072714;28;20632;-93
2021/12/28 00:55:16;;;;;;;2.00;1.90;;;;;;;;;;5080930;28;20265;-93
2021/12/28 00:57:43;;;;;;;2.40;1.90;;;;;;;;;;5095303;28;20208;-93
2021/12/28 01:00:12;;;;;;;2.87;1.80;;;;;;;;;;5083668;28;20339;-93
2021/12/28 01:02:41;;;;;;;3.83;1.43;;;;;;;;;;5066430;28;20761;-93
2021/12/28 01:05:09;;;;;;;1.90;1.70;;;;;;;;;;5086765;28;20208;-93
2021/12/28 01:07:36;;;;;;;9.87;2.00;;;;;;;;;;5095052;28;20212;-92
2021/12/28 01:10:05;;;;;;;1.60;1.50;;;;;;;;;;5076967;28;20210;-93
2021/12/28 01:12:32;;;;;;;9.90;1.70;;;;;;;;;;5076377;28;20224;-93
2021/12/28 01:15:00;;;;;;;3.67;1.77;;;;;;;;;;5095112;28;20204;-93
2021/12/28 01:17:27;;;;;;;2.53;1.50;;;;;;;;;;5095048;28;20204;-93
2021/12/28 01:19:56;;;;;;;6.77;1.80;;;;;;;;;;5080149;28;20273;-93
2021/12/28 01:22:23;;;;;;;2.10;1.67;;;;;;;;;;5076127;28;20229;-93
2021/12/28 01:24:50;;;;;;;8.97;1.90;;;;;;;;;;5095031;28;20554;-93
2021/12/28 01:27:18;;;;;;;4.73;1.60;;;;;;;;;;5094786;28;20208;-93
2021/12/28 01:29:45;;;;;;;3.27;1.67;;;;;;;;;;5075180;28;20242;-93
2021/12/28 01:32:13;;;;;;;2.10;1.87;;;;;;;;;;5085215;28;20257;-92
2021/12/28 01:34:41;;;;;;;2.20;1.90;;;;;;;;;;5074607;28;20247;-93
2021/12/28 01:37:10;;;;;;;4.60;1.77;;;;;;;;;;5074403;28;20205;-93
2021/12/28 01:39:37;;;;;;;2.17;2.00;;;;;;;;;;5074048;28;20236;-93
2021/12/28 01:42:06;;;;;;;3.33;2.07;;;;;;;;;;5084327;28;20209;-92
2021/12/28 01:44:34;;;;;;;5.73;1.70;;;;;;;;;;5074228;28;20280;-93
2021/12/28 01:47:01;;;;;;;1.67;1.57;;;;;;;;;;5071053;28;20263;-93
2021/12/28 01:49:29;;;;;;;2.20;1.60;;;;;;;;;;5077012;28;20205;-93
2021/12/28 01:51:56;;;;;;;2.17;1.57;;;;;;;;;;5088816;28;20209;-93
2021/12/28 01:54:25;;;;;;;1.60;1.50;;;;;;;;;;5077159;28;20237;-93
2021/12/28 01:56:52;;;;;;;2.17;1.77;;;;;;;;;;5060512;28;20209;-92
2021/12/28 01:59:21;;;;;;;1.60;1.50;;;;;;;;;;5089059;28;20746;-93
2021/12/28 02:01:49;;;;;;;1.63;1.53;;;;;;;;;;5072688;28;20206;-92
2021/12/28 02:04:17;;;;;;;1.57;1.47;;;;;;;;;;5073920;28;20251;-93
2021/12/28 02:09:54;;;;;;;1.93;1.73;;;;;;;;;;5090522;28;20530;-93
2021/12/28 02:12:22;;;;;;;5.57;1.93;;;;;;;;;;5076682;28;20316;-93
2021/12/28 02:14:50;;;;;;;1.60;1.50;;;;;;;;;;5073328;28;20202;-93
2021/12/28 02:17:17;;;;;;;2.20;2.00;;;;;;;;;;5073431;28;20208;-93
2021/12/28 02:19:45;;;;;;;1.80;1.70;;;;;;;;;;5070900;28;20216;-93
2021/12/28 02:22:13;;;;;;;3.97;1.90;;;;;;;;;;5078328;28;20208;-90
2021/12/28 02:24:41;;;;;;;2.43;1.70;;;;;;;;;;5093611;28;20597;-92
2021/12/28 02:27:08;;;;;;;1.63;1.53;;;;;;;;;;5082300;28;20651;-92
2021/12/28 02:29:35;;;;;;;1.50;1.40;;;;;;;;;;5071898;28;20254;-93
2021/12/28 02:32:02;;;;;;;1.60;1.50;;;;;;;;;;5077983;28;20205;-93
2021/12/28 02:34:30;;;;;;;2.47;1.80;;;;;;;;;;5072525;28;20229;-93
2021/12/28 02:36:57;;;;;;;3.03;1.67;;;;;;;;;;5064999;28;20232;-93
2021/12/28 02:39:26;;;;;;;1.50;1.40;;;;;;;;;;5072862;28;20217;-93
2021/12/28 02:41:53;;;;;;;2.43;1.83;;;;;;;;;;5073251;28;20266;-92
2021/12/28 02:44:20;;;;;;;1.77;1.67;;;;;;;;;;5066895;28;20328;-93
2021/12/28 02:46:48;;;;;;;1.47;1.37;;;;;;;;;;5077695;28;20201;-92
2021/12/28 02:49:15;;;;;;;1.10;1.10;;;;;;;;;;5076322;28;20282;-93
2021/12/28 02:51:42;;;;;;;1.40;1.30;;;;;;;;;;5072847;28;20205;-92
2021/12/28 02:54:10;;;;;;;1.40;1.30;;;;;;;;;;5070290;28;20323;-92
2021/12/28 02:56:38;;;;;;;1.93;1.40;;;;;;;;;;5072620;28;20239;-92
2021/12/28 02:59:06;;;;;;;1.70;1.60;;;;;;;;;;5088732;28;20261;-92
2021/12/28 03:01:34;;;;;;;1.73;1.53;;;;;;;;;;5093182;28;20238;-93
2021/12/28 03:04:07;;;;;;;1.60;1.50;;;;;;;;;;5076458;28;20836;-93
2021/12/28 03:06:35;;;;;;;1.40;1.30;;;;;;;;;;5081759;28;20204;-92
2021/12/28 03:09:04;;;;;;;3.73;1.70;;;;;;;;;;5071333;28;20291;-92
2021/12/28 03:11:31;;;;;;;1.50;1.40;;;;;;;;;;5073676;28;20562;-93
2021/12/28 03:14:01;;;;;;;3.57;1.53;;;;;;;;;;5085513;28;20224;-92
2021/12/28 03:16:29;;;;;;;1.43;1.33;;;;;;;;;;5073690;28;20200;-92
2021/12/28 03:18:57;;;;;;;1.87;1.43;;;;;;;;;;5070627;28;20205;-93
2021/12/28 03:21:25;;;;;;;5.73;2.07;;;;;;;;;;5074507;28;20213;-92
2021/12/28 03:23:54;;;;;;;2.20;2.00;;;;;;;;;;5079336;28;20279;-93
2021/12/28 03:26:22;;;;;;;2.00;1.73;;;;;;;;;;5071032;28;20213;-93
2021/12/28 03:28:49;;;;;;;2.30;1.60;;;;;;;;;;5067717;28;20736;-92
2021/12/28 03:31:19;;;;;;;1.50;1.40;;;;;;;;;;5090033;28;20250;-93
2021/12/28 03:33:47;;;;;;;3.37;1.63;;;;;;;;;;5084179;28;20275;-93
2021/12/28 03:36:16;;;;;;;2.67;1.83;;;;;;;;;;5059901;28;20424;-93
2021/12/28 03:38:45;;;;;;;4.67;1.87;;;;;;;;;;5076512;28;20205;-92
2021/12/28 03:41:12;;;;;;;1.73;1.40;;;;;;;;;;5076415;28;20221;-92
2021/12/28 03:43:41;;;;;;;2.03;1.63;;;;;;;;;;5070297;28;20273;-93
2021/12/28 03:46:09;;;;;;;2.93;1.87;;;;;;;;;;5080641;28;20201;-93
2021/12/28 03:48:39;;;;;;;1.60;1.50;;;;;;;;;;5096277;28;20212;-92
2021/12/28 03:51:08;;;;;;;2.70;1.87;;;;;;;;;;5083743;28;20225;-93
2021/12/28 03:53:35;;;;;;;2.83;1.30;;;;;;;;;;5079654;28;20232;-92
2021/12/28 03:56:04;;;;;;;3.33;1.80;;;;;;;;;;5089722;28;20546;-93
2021/12/28 03:58:32;;;;;;;5.03;1.77;;;;;;;;;;5093071;28;20208;-92
2021/12/28 04:01:00;;;;;;;2.70;1.67;;;;;;;;;;5064066;28;20321;-93
2021/12/28 04:03:28;;;;;;;4.07;1.70;;;;;;;;;;5085111;28;20279;-92
2021/12/28 04:05:59;;;;;;;3.53;1.57;;;;;;;;;;5093237;28;20238;-93
2021/12/28 04:08:28;;;;;;;3.10;1.40;;;;;;;;;;5075307;28;20293;-93
2021/12/28 04:11:02;;;;;;;4.03;1.60;;;;;;;;;;5090039;28;20207;-93
2021/12/28 04:13:31;;;;;;;5.43;1.60;;;;;;;;;;5073745;28;20235;-93
2021/12/28 04:15:58;;;;;;;6.80;1.87;;;;;;;;;;5067394;28;20209;-91
2021/12/28 04:18:25;;;;;;;4.57;2.00;;;;;;;;;;5083875;28;20205;-92
2021/12/28 04:20:53;;;;;;;2.63;1.77;;;;;;;;;;5086736;28;20232;-92
2021/12/28 04:23:21;;;;;;;2.73;1.77;;;;;;;;;;5068520;28;20229;-93
2021/12/28 04:25:49;;;;;;;5.27;2.07;;;;;;;;;;5075281;28;20209;-93
2021/12/28 04:28:16;;;;;;;4.50;2.03;;;;;;;;;;5092636;28;20572;-93
2021/12/28 04:30:43;;;;;;;6.77;1.70;;;;;;;;;;5091869;28;20224;-93
2021/12/28 04:33:11;;;;;;;6.07;1.90;;;;;;;;;;5072375;28;20275;-92
2021/12/28 04:35:38;;;;;;;8.90;2.17;;;;;;;;;;5084824;28;20200;-93
2021/12/28 04:38:05;;;;;;;4.50;2.00;;;;;;;;;;5095681;28;20205;-93
2021/12/28 04:40:34;;;;;;;4.00;1.70;;;;;;;;;;5079782;28;20706;-93
2021/12/28 04:43:01;;;;;;;2.63;1.63;;;;;;;;;;5071810;28;20229;-93
2021/12/28 04:45:29;;;;;;;5.57;2.50;;;;;;;;;;5083726;28;20212;-93
2021/12/28 04:47:57;;;;;;;6.70;2.40;;;;;;;;;;5075355;28;20209;-92
2021/12/28 04:50:25;;;;;;;6.80;2.93;;;;;;;;;;5071208;28;20740;-92
2021/12/28 04:52:53;;;;;;;4.33;2.07;;;;;;;;;;5080259;28;20232;-93
2021/12/28 04:55:20;;;;;;;3.27;2.00;;;;;;;;;;5086878;28;20649;-93
2021/12/28 04:57:49;;;;;;;4.23;2.13;;;;;;;;;;5095479;28;20208;-93
2021/12/28 05:00:18;;;;;;;6.77;2.13;;;;;;;;;;5067796;28;20267;-93
2021/12/28 05:02:46;;;;;;;7.43;1.90;;;;;;;;;;5083709;28;20232;-93
2021/12/28 05:05:13;;;;;;;4.73;1.63;;;;;;;;;;5075295;28;20209;-93
2021/12/28 05:07:41;;;;;;;6.53;2.27;;;;;;;;;;5069986;28;20259;-93
2021/12/28 05:10:09;;;;;;;3.20;1.70;;;;;;;;;;5066566;28;20209;-92
2021/12/28 05:12:36;;;;;;;3.30;2.00;;;;;;;;;;5064052;28;20226;-93
2021/12/28 05:15:06;;;;;;;4.13;2.10;;;;;;;;;;5071105;28;20214;-94
2021/12/28 05:17:39;;;;;;;6.23;2.33;;;;;;;;;;5071817;28;20209;-94
2021/12/28 05:20:08;;;;;;;2.30;1.60;;;;;;;;;;5079548;28;20259;-92
2021/12/28 05:22:35;;;;;;;10.30;2.03;;;;;;;;;;5083254;28;20225;-93
2021/12/28 05:25:07;;;;;;;8.93;2.60;;;;;;;;;;5071717;28;20663;-92
2021/12/28 05:27:34;;;;;;;4.53;2.07;;;;;;;;;;5081746;28;20205;-93
2021/12/28 05:30:01;;;;;;;5.47;1.53;;;;;;;;;;5069549;28;20206;-93
2021/12/28 05:32:30;;;;;;;7.20;2.10;;;;;;;;;;5074346;28;20574;-94
2021/12/28 05:34:58;;;;;;;4.17;1.53;;;;;;;;;;5063977;28;20290;-93
2021/12/28 05:37:25;;;;;;;6.60;2.07;;;;;;;;;;5072563;28;20205;-93
2021/12/28 05:39:52;;;;;;;7.13;2.20;;;;;;;;;;5074670;28;20295;-93
2021/12/28 05:42:19;;;;;;;6.13;2.00;;;;;;;;;;5068973;28;20209;-94
2021/12/28 05:44:47;;;;;;;5.63;2.07;;;;;;;;;;5074022;28;20205;-93
2021/12/28 05:47:14;;;;;;;3.03;1.90;;;;;;;;;;5073292;28;20611;-93
2021/12/28 05:49:43;;;;;;;5.53;2.03;;;;;;;;;;5074537;28;20459;-94
2021/12/28 05:52:46;;;;;;;6.10;2.20;;;;;;;;;;5072241;28;20205;-93
2021/12/28 05:55:13;;;;;;;5.97;2.20;;;;;;;;;;5069999;28;20244;-93
2021/12/28 05:57:40;;;;;;;9.90;3.77;;;;;;;;;;5074021;28;20221;-93
2021/12/28 06:00:10;;;;;;;5.97;2.40;;;;;;;;;;5071365;28;20274;-92
2021/12/28 06:02:38;;;;;;;5.80;2.20;;;;;;;;;;5076229;28;20762;-93
2021/12/28 06:05:07;;;;;;;6.77;2.40;;;;;;;;;;5086700;28;20288;-92
2021/12/28 06:07:35;;;;;;;7.77;2.50;;;;;;;;;;5074136;28;20209;-93
2021/12/28 06:10:02;;;;;;;2.13;1.90;;;;;;;;;;5067285;28;20271;-93
2021/12/28 06:12:29;;;;;;;3.83;1.80;;;;;;;;;;5059906;28;20652;-93
2021/12/28 06:14:57;;;;;;;1.80;1.67;;;;;;;;;;5078878;28;20227;-93
2021/12/28 06:17:24;;;;;;;2.77;1.67;;;;;;;;;;5073551;28;20213;-93
2021/12/28 06:19:51;;;;;;;1.30;1.20;;;;;;;;;;5070449;28;20231;-93
2021/12/28 06:22:20;;;;;;;3.50;1.40;;;;;;;;;;5079572;28;20228;-93
2021/12/28 06:24:49;;;;;;;4.43;1.70;;;;;;;;;;5080299;28;20665;-93
2021/12/28 06:27:17;;;;;;;3.47;1.30;;;;;;;;;;5073455;28;20209;-93
2021/12/28 06:29:44;;;;;;;2.00;1.30;;;;;;;;;;5072680;28;20205;-93
2021/12/28 06:32:12;;;;;;;1.43;1.13;;;;;;;;;;5080054;28;20258;-93
2021/12/28 06:34:39;;;;;;;2.50;1.30;;;;;;;;;;5094397;28;20611;-93
2021/12/28 06:37:06;;;;;;;2.37;1.20;;;;;;;;;;5073711;28;20217;-92
2021/12/28 06:39:35;;;;;;;1.27;1.17;;;;;;;;;;5081355;28;20224;-93
2021/12/28 06:42:03;;;;;;;0.80;0.77;;;;;;;;;;5081028;28;20236;-92
2021/12/28 06:44:30;;;;;;;3.10;1.23;;;;;;;;;;5070162;28;20236;-93
2021/12/28 06:46:58;;;;;;;2.67;1.30;;;;;;;;;;5087790;28;20217;-91
2021/12/28 06:49:25;;;;;;;3.20;1.50;;;;;;;;;;5097299;28;20295;-93
2021/12/28 06:51:53;;;;;;;2.50;1.30;;;;;;;;;;5073722;28;20210;-93
2021/12/28 06:54:20;;;;;;;1.17;1.10;;;;;;;;;;5066960;28;20294;-93
2021/12/28 06:56:49;;;;;;;1.17;1.07;;;;;;;;;;5092613;28;20753;-93
2021/12/28 06:59:16;;;;;;;1.17;1.07;;;;;;;;;;5071495;28;20270;-91
2021/12/28 07:01:44;;;;;;;1.03;1.00;;;;;;;;;;5066763;28;20218;-93
2021/12/28 07:04:11;;;;;;;1.00;0.90;;;;;;;;;;5076966;28;20278;-93
2021/12/28 07:06:39;;;;;;;0.90;0.90;;;;;;;;;;5061655;28;20202;-93
2021/12/28 07:09:06;;;;;;;1.40;1.30;;;;;;;;;;5071267;28;20555;-93
2021/12/28 07:11:33;;;;;;;1.10;1.03;;;;;;;;;;5080867;28;20274;-93
2021/12/28 07:14:02;;;;;;;2.27;0.90;;;;;;;;;;5072663;28;20222;-92
2021/12/28 07:16:29;;;;;;;0.80;0.80;;;;;;;;;;5076615;28;20225;-93
2021/12/28 07:18:57;;;;;;;1.60;0.87;;;;;;;;;;5079523;28;20704;-93
2021/12/28 07:21:24;;;;;;;1.80;1.00;;;;;;;;;;5074711;28;20217;-93
2021/12/28 07:23:51;;;;;;;1.53;1.17;;;;;;;;;;5072862;28;20237;-93
2021/12/28 07:26:18;;;;;;;2.33;0.90;;;;;;;;;;5056917;28;20233;-93
2021/12/28 07:28:46;;;;;;;1.67;0.67;;;;;;;;;;5069916;28;20250;-93
2021/12/28 07:31:14;;;;;;;1.07;0.97;;;;;;;;;;5085419;28;20239;-93
2021/12/28 07:33:42;;;;;;;0.60;0.60;;;;;;;;;;5070920;28;20225;-93
2021/12/28 07:36:09;;;;;;;1.83;0.90;;;;;;;;;;5062221;28;20201;-93
2021/12/28 07:38:36;;;;;;;0.70;0.70;;;;;;;;;;5075474;28;20258;-93
2021/12/28 07:41:04;;;;;;;0.70;0.70;;;;;;;;;;5086050;28;20745;-92
2021/12/28 07:43:31;;;;;;;0.80;0.80;;;;;;;;;;5071504;28;20224;-92
2021/12/28 07:45:58;;;;;;;1.47;0.70;;;;;;;;;;5073292;28;20254;-92
2021/12/28 07:48:27;;;;;;;0.83;0.60;;;;;;;;;;5073912;28;20229;-93
2021/12/28 07:50:55;;;;;;;0.73;0.60;;;;;;;;;;5065799;28;20213;-91
2021/12/28 07:53:22;;;;;;;0.53;0.53;;;;;;;;;;5083118;28;20228;-92
2021/12/28 07:55:49;;;;;;;0.60;0.60;;;;;;;;;;5085897;28;20200;-93
2021/12/28 08:01:20;;;;;;;0.50;0.50;;;;;;;;;;5061104;28;20209;-92
2021/12/28 08:03:49;;;;;;;0.53;0.50;;;;;;;;;;5084961;28;20685;-92
2021/12/28 08:06:16;;;;;;;0.60;0.60;;;;;;;;;;5078397;28;20653;-91
2021/12/28 08:08:43;;;;;;;0.60;0.60;;;;;;;;;;5076127;28;20798;-92
2021/12/28 08:11:11;;;;;;;0.50;0.50;;;;;;;;;;5077264;28;20201;-92
2021/12/28 08:13:38;;;;;;;0.93;0.53;;;;;;;;;;5069309;28;20222;-92
2021/12/28 08:16:06;;;;;;;0.50;0.50;;;;;;;;;;5074904;28;20621;-92
2021/12/28 08:18:33;;;;;;;0.63;0.57;;;;;;;;;;5092002;28;20205;-92
2021/12/28 08:21:02;;;;;;;0.60;0.60;;;;;;;;;;5091198;28;20274;-93
2021/12/28 08:23:29;;;;;;;1.33;0.40;;;;;;;;;;5067986;28;20223;-92
2021/12/28 08:25:56;;;;;;;0.50;0.50;;;;;;;;;;5090369;28;20235;-92
2021/12/28 08:28:24;;;;;;;2.93;0.70;;;;;;;;;;5096004;28;20610;-92
2021/12/28 08:30:51;;;;;;;0.50;0.50;;;;;;;;;;5078064;28;20209;-93
2021/12/28 08:33:18;;;;;;;0.40;0.40;;;;;;;;;;5091204;28;20232;-92
2021/12/28 08:35:45;;;;;;;1.07;0.70;;;;;;;;;;5075320;28;20209;-93
2021/12/28 08:38:14;;;;;;;1.30;0.90;;;;;;;;;;5071362;28;20205;-92
2021/12/28 08:40:42;;;;;;;0.97;0.83;;;;;;;;;;5073305;28;20234;-92
2021/12/28 08:43:10;;;;;;;2.00;1.30;;;;;;;;;;5078988;28;20229;-92
2021/12/28 08:45:37;;;;;;;1.17;0.87;;;;;;;;;;5075457;28;20216;-92
2021/12/28 08:48:06;;;;;;;0.83;0.73;;;;;;;;;;5070949;28;20231;-93
2021/12/28 08:50:34;;;;;;;0.87;0.87;;;;;;;;;;5077434;28;20663;-92
2021/12/28 08:53:01;;;;;;;0.63;0.40;;;;;;;;;;5088595;28;20213;-92
2021/12/28 08:55:30;;;;;;;0.60;0.60;;;;;;;;;;5075461;28;20228;-92
2021/12/28 08:57:57;;;;;;;0.60;0.60;;;;;;;;;;5062292;28;20210;-92
2021/12/28 09:00:26;;;;;;;0.40;0.40;;;;;;;;;;5074671;28;20261;-93
2021/12/28 09:02:53;;;;;;;0.40;0.40;;;;;;;;;;5074682;28;20229;-92
2021/12/28 09:05:21;;;;;;;0.40;0.40;;;;;;;;;;5072790;28;20209;-92
2021/12/28 09:07:48;;;;;;;0.57;0.57;;;;;;;;;;5073536;28;20209;-92
2021/12/28 09:10:16;;;;;;;0.60;0.43;;;;;;;;;;5074638;28;20288;-92
2021/12/28 09:12:44;;;;;;;0.30;0.30;;;;;;;;;;5072925;28;20225;-91
2021/12/28 09:15:12;;;;;;;0.67;0.40;;;;;;;;;;5070384;28;20718;-92
2021/12/28 09:17:41;;;;;;;0.30;0.30;;;;;;;;;;5070156;28;20204;-92
2021/12/28 09:20:10;;;;;;;0.40;0.40;;;;;;;;;;5095091;28;20204;-91
2021/12/28 09:22:38;;;;;;;0.50;0.50;;;;;;;;;;5085043;28;20256;-92
2021/12/28 09:25:06;;;;;;;0.20;0.20;;;;;;;;;;5078203;28;20209;-92
2021/12/28 09:27:33;;;;;;;0.53;0.53;;;;;;;;;;5073960;28;20209;-92
2021/12/28 09:30:02;;;;;;;0.30;0.30;;;;;;;;;;5074738;28;20205;-91
2021/12/28 09:32:29;;;;;;;0.83;0.57;;;;;;;;;;5070740;28;20255;-92
2021/12/28 09:34:57;;;;;;;1.23;1.10;;;;;;;;;;5085843;28;20603;-92
2021/12/28 09:37:24;;;;;;;1.53;1.30;;;;;;;;;;5084359;28;20239;-92
2021/12/28 09:39:51;;;;;;;1.97;1.30;;;;;;;;;;5074593;28;20278;-91
2021/12/28 09:42:19;;;;;;;2.87;1.50;;;;;;;;;;5061232;28;20229;-92
2021/12/28 09:44:47;;;;;;;1.77;1.27;;;;;;;;;;5084124;28;20205;-92
2021/12/28 09:47:17;;;;;;;0.90;0.90;;;;;;;;;;5090777;28;20204;-92
2021/12/28 09:49:44;;;;;;;1.10;1.00;;;;;;;;;;5076185;28;20263;-91
2021/12/28 09:52:12;;;;;;;2.53;1.37;;;;;;;;;;5073379;28;20657;-92
2021/12/28 09:54:40;;;;;;;3.53;1.30;;;;;;;;;;5073904;28;20231;-91
2021/12/28 09:57:07;;;;;;;1.80;1.43;;;;;;;;;;5073639;28;20620;-92
2021/12/28 09:59:35;;;;;;;1.90;1.70;;;;;;;;;;5073843;28;20905;-92
2021/12/28 10:02:08;;;;;;;1.43;1.33;;;;;;;;;;5076139;28;20692;-92
2021/12/28 10:04:37;;;;;;;1.37;1.27;;;;;;;;;;5079123;28;20188;-92
2021/12/28 10:07:18;;;;;;;1.40;1.30;;;;;;;;;;5093888;28;20204;-92
2021/12/28 10:09:46;;;;;;;5.43;3.40;;;;;;;;;;5084280;28;20263;-92
2021/12/28 10:12:13;;;;;;;5.27;3.13;;;;;;;;;;5070284;28;20229;-92
2021/12/28 10:14:41;;;;;;;2.67;2.30;;;;;;;;;;5077143;28;20646;-92
2021/12/28 10:17:08;;;;;;;1.70;1.60;;;;;;;;;;5092792;28;20282;-91
2021/12/28 10:19:40;;;;;;;4.03;1.80;;;;;;;;;;5071944;28;20258;-90
2021/12/28 10:22:20;;;;;;;1.90;1.80;;;;;;;;;;5067396;28;20221;-92
2021/12/28 10:24:48;;;;;;;1.93;1.70;;;;;;;;;;5073154;28;20229;-92
2021/12/28 10:27:16;;;;;;;3.07;1.53;;;;;;;;;;5073375;28;20205;-93
2021/12/28 10:29:43;;;;;;;2.30;1.43;;;;;;;;;;5067459;28;20201;-92
2021/12/28 10:32:18;;;;;;;1.27;1.20;;;;;;;;;;5079834;28;20205;-92
2021/12/28 10:34:48;;;;;;;0.70;0.53;;;;;;;;;;5088199;28;20204;-92
2021/12/28 10:37:16;;;;;;;0.30;0.30;;;;;;;;;;5067739;28;20205;-92
2021/12/28 10:39:44;;;;;;;0.50;0.50;;;;;;;;;;5078862;28;20200;-92
2021/12/28 10:42:12;;;;;;;0.20;0.20;;;;;;;;;;5084884;28;20224;-92
2021/12/28 10:44:54;;;;;;;0.43;0.30;;;;;;;;;;5093325;28;20605;-92
2021/12/28 10:47:25;;;;;;;0.40;0.30;;;;;;;;;;5074957;28;20547;-92
2021/12/28 10:49:54;;;;;;;0.63;0.43;;;;;;;;;;5072880;28;20266;-92
2021/12/28 10:52:27;;;;;;;1.57;0.20;;;;;;;;;;5084762;28;20205;-91
2021/12/28 10:55:17;;;;;;;0.50;0.50;;;;;;;;;;5083065;28;20213;-92
2021/12/28 10:57:44;;;;;;;0.50;0.50;;;;;;;;;;5068998;28;20224;-92
2021/12/28 11:00:26;;;;;;;0.20;0.20;;;;;;;;;;5092960;28;20201;-92
2021/12/28 11:02:54;;;;;;;0.40;0.40;;;;;;;;;;5064666;28;20253;-90
2021/12/28 11:05:35;;;;;;;0.60;0.33;;;;;;;;;;5076146;28;20711;-92
2021/12/28 11:08:03;;;;;;;1.33;0.40;;;;;;;;;;5087628;28;20205;-92
2021/12/28 11:10:30;;;;;;;0.23;0.20;;;;;;;;;;5092907;28;20212;-92
2021/12/28 11:12:57;;;;;;;0.30;0.30;;;;;;;;;;5073477;28;20240;-92
2021/12/28 11:15:25;;;;;;;0.23;0.23;;;;;;;;;;5087714;28;20270;-92
2021/12/28 11:17:53;;;;;;;0.30;0.30;;;;;;;;;;5071969;28;20579;-92
2021/12/28 11:20:30;;;;;;;0.50;0.30;;;;;;;;;;5069291;28;20263;-92
2021/12/28 11:23:12;;;;;;;0.30;0.30;;;;;;;;;;5073792;28;20224;-92
2021/12/28 11:25:40;;;;;;;0.50;0.50;;;;;;;;;;5052678;28;20279;-92
2021/12/28 11:28:15;;;;;;;0.47;0.47;;;;;;;;;;5067852;28;20222;-92
2021/12/28 11:30:58;;;;;;;0.63;0.30;;;;;;;;;;5064348;28;20219;-92
2021/12/28 11:33:25;;;;;;;0.50;0.50;;;;;;;;;;5072745;28;20282;-92
2021/12/28 11:35:52;;;;;;;0.27;0.27;;;;;;;;;;5067139;28;20204;-92
2021/12/28 11:38:21;;;;;;;0.30;0.30;;;;;;;;;;5080614;28;20200;-91
2021/12/28 11:40:49;;;;;;;0.40;0.40;;;;;;;;;;5085808;28;20200;-91
2021/12/28 11:43:16;;;;;;;0.70;0.70;;;;;;;;;;5091891;28;20818;-91
2021/12/28 11:45:45;;;;;;;0.50;0.50;;;;;;;;;;5070444;28;20198;-92
2021/12/28 11:48:12;;;;;;;0.50;0.50;;;;;;;;;;5068194;28;20209;-92
2021/12/28 11:50:40;;;;;;;0.30;0.30;;;;;;;;;;5084465;28;20231;-92
2021/12/28 11:53:11;;;;;;;0.50;0.27;;;;;;;;;;5065654;28;20287;-92
2021/12/28 11:55:41;;;;;;;0.30;0.30;;;;;;;;;;5076823;28;20201;-91
2021/12/28 11:58:09;;;;;;;0.20;0.20;;;;;;;;;;5086812;28;20262;-92
2021/12/28 12:00:38;;;;;;;1.10;0.30;;;;;;;;;;5081429;28;20205;-92
2021/12/28 12:03:06;;;;;;;0.40;0.40;;;;;;;;;;5074247;28;20232;-92
2021/12/28 12:05:34;;;;;;;0.20;0.20;;;;;;;;;;5078324;28;20213;-92
2021/12/28 12:08:06;;;;;;;0.33;0.33;;;;;;;;;;5080776;28;20259;-91
2021/12/28 12:10:35;;;;;;;0.43;0.40;;;;;;;;;;5070073;28;20209;-92
2021/12/28 12:13:07;;;;;;;0.40;0.40;;;;;;;;;;5075788;28;20286;-91
2021/12/28 12:15:40;;;;;;;0.40;0.40;;;;;;;;;;5090087;28;20201;-92
2021/12/28 12:18:11;;;;;;;0.37;0.37;;;;;;;;;;5067712;28;20216;-91
2021/12/28 12:20:49;;;;;;;0.40;0.40;;;;;;;;;;5060499;28;20248;-92
2021/12/28 12:23:25;;;;;;;0.60;0.60;;;;;;;;;;5083038;28;20224;-92
2021/12/28 12:26:01;;;;;;;0.40;0.40;;;;;;;;;;5093844;28;20285;-92
2021/12/28 12:31:42;;;;;;;0.77;0.63;;;;;;;;;;5113903;27;20595;-91
2021/12/28 12:34:24;;;;;;;0.40;0.40;;;;;;;;;;5110298;27;20219;-90
2021/12/28 12:36:54;;;;;;;0.50;0.40;;;;;;;;;;5089855;28;20242;-90
2021/12/28 12:39:23;;;;;;;0.30;0.30;;;;;;;;;;5094359;28;20204;-91
2021/12/28 12:41:51;;;;;;;0.57;0.43;;;;;;;;;;5119116;27;20706;-90
2021/12/28 12:44:20;;;;;;;0.30;0.30;;;;;;;;;;5109709;28;20215;-91
2021/12/28 12:46:52;;;;;;;0.40;0.40;;;;;;;;;;5107069;28;20208;-91
2021/12/28 12:49:26;;;;;;;0.50;0.50;;;;;;;;;;5107355;28;20209;-91
2021/12/28 12:52:01;;;;;;;0.60;0.60;;;;;;;;;;5121780;27;20191;-90
2021/12/28 12:54:33;;;;;;;0.43;0.43;;;;;;;;;;5130732;27;20698;-90
2021/12/28 12:57:05;;;;;;;0.73;0.70;;;;;;;;;;5120654;27;20258;-90
2021/12/28 12:59:33;;;;;;;0.40;0.23;;;;;;;;;;5108042;28;20204;-90
2021/12/28 13:02:04;;;;;;;1.60;0.70;;;;;;;;;;5103776;28;20196;-91
2021/12/28 13:04:42;;;;;;;0.47;0.47;;;;;;;;;;5123904;27;20184;-90
2021/12/28 13:07:11;;;;;;;0.73;0.73;;;;;;;;;;5099568;28;20229;-91
2021/12/28 13:09:40;;;;;;;2.73;0.90;;;;;;;;;;5114801;28;20614;-91
2021/12/28 13:12:08;;;;;;;0.70;0.70;;;;;;;;;;5094855;28;20235;-91
2021/12/28 13:14:35;;;;;;;0.73;0.70;;;;;;;;;;5098591;28;20333;-91
2021/12/28 13:17:05;;;;;;;1.53;0.70;;;;;;;;;;5112660;28;20265;-91
2021/12/28 13:19:38;;;;;;;0.80;0.80;;;;;;;;;;5118819;28;20619;-91
2021/12/28 13:22:06;;;;;;;0.47;0.47;;;;;;;;;;5113160;27;20216;-91
2021/12/28 13:24:34;;;;;;;0.40;0.40;;;;;;;;;;5094546;28;20229;-91
2021/12/28 13:27:04;;;;;;;0.80;0.50;;;;;;;;;;5106452;28;20231;-91
2021/12/28 13:29:32;;;;;;;1.70;0.50;;;;;;;;;;5111345;28;20212;-91
2021/12/28 13:32:13;;;;;;;1.70;0.80;;;;;;;;;;5117370;27;20216;-91
2021/12/28 13:34:55;;;;;;;0.60;0.60;;;;;;;;;;5107799;28;20203;-90
2021/12/28 13:37:29;;;;;;;0.70;0.67;;;;;;;;;;5105734;28;20253;-91
2021/12/28 13:39:59;;;;;;;1.03;0.50;;;;;;;;;;5119808;27;20218;-91
2021/12/28 13:42:26;;;;;;;0.90;0.70;;;;;;;;;;5100153;27;20263;-91
2021/12/28 13:44:53;;;;;;;1.70;0.50;;;;;;;;;;5080698;28;20309;-90
2021/12/28 13:47:22;;;;;;;1.20;0.80;;;;;;;;;;5111304;28;20269;-91
2021/12/28 13:50:00;;;;;;;1.93;0.60;;;;;;;;;;5079924;28;20290;-91
2021/12/28 13:52:28;;;;;;;0.30;0.30;;;;;;;;;;5078087;28;20247;-91
2021/12/28 13:54:55;;;;;;;0.50;0.50;;;;;;;;;;5104393;28;20192;-92
2021/12/28 13:57:22;;;;;;;0.30;0.30;;;;;;;;;;5097485;27;20212;-91
2021/12/28 13:59:55;;;;;;;2.50;1.13;;;;;;;;;;5095262;28;20208;-91
2021/12/28 14:02:23;;;;;;;0.50;0.40;;;;;;;;;;5076490;28;20656;-91
2021/12/28 14:04:52;;;;;;;1.70;0.70;;;;;;;;;;5090680;28;20212;-90
2021/12/28 14:07:19;;;;;;;0.77;0.50;;;;;;;;;;5091680;28;20197;-91
2021/12/28 14:09:47;;;;;;;0.40;0.40;;;;;;;;;;5091932;28;20224;-88
2021/12/28 14:12:15;;;;;;;0.30;0.30;;;;;;;;;;5091759;28;20279;-90
2021/12/28 14:14:47;;;;;;;0.40;0.40;;;;;;;;;;5081340;28;20730;-91
2021/12/28 14:17:15;;;;;;;0.80;0.47;;;;;;;;;;5092871;28;20235;-91
2021/12/28 14:19:44;;;;;;;9.73;6.50;;;;;;;;;;5089075;28;20255;-90
2021/12/28 14:22:13;;;;;;;2.60;2.40;;;;;;;;;;5080778;28;20562;-91
2021/12/28 14:24:40;;;;;;;24.57;15.93;;;;;;;;;;5088694;28;20563;-91
2021/12/28 14:27:07;;;;;;;18.20;14.00;;;;;;;;;;5110852;28;20245;-91
2021/12/28 14:29:35;;;;;;;3.10;2.80;;;;;;;;;;5081008;28;20269;-91
2021/12/28 14:32:03;;;;;;;1.53;1.10;;;;;;;;;;5095584;28;20192;-90
2021/12/28 14:34:33;;;;;;;0.80;0.80;;;;;;;;;;5110381;28;20253;-91
2021/12/28 14:37:06;;;;;;;1.17;0.70;;;;;;;;;;5075524;28;20205;-91
2021/12/28 14:39:37;;;;;;;3.10;1.00;;;;;;;;;;5074101;28;20202;-89
2021/12/28 14:42:05;;;;;;;0.80;0.80;;;;;;;;;;5086388;28;20197;-89
2021/12/28 14:44:33;;;;;;;2.83;1.00;;;;;;;;;;5095394;28;20200;-91
2021/12/28 14:47:02;;;;;;;1.23;1.23;;;;;;;;;;5093349;28;20208;-91
2021/12/28 14:49:31;;;;;;;0.90;0.90;;;;;;;;;;5083879;28;20610;-91
2021/12/28 14:52:25;;;;;;;1.87;1.23;;;;;;;;;;5099323;28;20212;-90
2021/12/28 14:54:58;;;;;;;0.97;0.97;;;;;;;;;;5068725;28;20240;-89
2021/12/28 14:57:26;;;;;;;1.27;0.90;;;;;;;;;;5081272;28;20224;-91
2021/12/28 14:59:54;;;;;;;2.00;1.00;;;;;;;;;;5082776;28;20205;-91
2021/12/28 15:02:22;;;;;;;0.87;0.73;;;;;;;;;;5111404;28;20261;-91